Nakhchivan — 9HHK8 — position and weather

sailwx.info

Track history (hours):
 
Tides and Currents Weather Stations Pressure Air Temp Water Temp Dewpoint Dewpoint Depression Visibility Wind Speed Wind Dir Waves Ship Positions

Nakhchivan

Last reported at 2014-Aug-02 01:05 UTC. Time now 2014-Aug-02 02:50 UTC.
Position N 43°30' E 010°17'.

Length 139 m; draft 4.6 m.

Type: Cargo ship. MMSI: 215983000.

Date/timePositionNaut miles runAvg speedWind from/ knotsBaromVisibWave heightAir tempDewpointWater temp
2014-Aug-02 01:05N 43°30' E 010°17'0 0.0
2014-Aug-02 00:30N 43°30' E 010°17'0 0.0
2014-Aug-01 22:28N 43°30' E 010°17'0 0.0
2014-Aug-01 21:31N 43°30' E 010°17'0 0.0
2014-Aug-01 20:31N 43°30' E 010°17'0 0.0
2014-Aug-01 19:31N 43°30' E 010°17'0 0.0
2014-Aug-01 18:31N 43°30' E 010°17'0 0.0
2014-Aug-01 17:21N 43°30' E 010°17'3 4.0
2014-Aug-01 16:33N 43°29' E 010°13'10 9.7
2014-Aug-01 15:33N 43°22' E 010°03'148 9.5
2014-Aug-01 00:04N 42°50' E 006°46'24 8.6
2014-Jul-31 21:20N 42°47' E 006°14'7 8.7
2014-Jul-31 20:31N 42°48' E 006°04'10 9.5
2014-Jul-31 19:30N 42°48' E 005°51'9 9.4
2014-Jul-31 18:33N 42°49' E 005°39'20 9.4
2014-Jul-31 16:22N 42°49' E 005°11'7 8.7
2014-Jul-31 15:32N 42°49' E 005°01'10 9.4
2014-Jul-31 14:32N 42°50' E 004°48'10 9.7
2014-Jul-31 13:29N 42°51' E 004°34'9 9.5
2014-Jul-31 12:32N 42°51' E 004°22'10 9.9
2014-Jul-31 11:32N 42°51' E 004°08'9 9.1
2014-Jul-31 10:33N 42°52' E 003°56'10 9.9
2014-Jul-31 09:30N 42°52' E 003°42'2010.0
2014-Jul-31 07:32N 42°57' E 003°16'9 9.3
2014-Jul-31 06:32N 43°01' E 003°04'1 0.1
2014-Jul-31 00:28N 43°01' E 003°03'0 0.0
2014-Jul-30 23:20N 43°01' E 003°03'0 0.0
2014-Jul-30 15:24N 43°01' E 003°03'0 0.0
2014-Jul-30 13:18N 43°01' E 003°03'0 0.0
2014-Jul-30 11:14N 43°01' E 003°03'0 0.0
2014-Jul-30 10:24N 43°01' E 003°03'0 0.0
2014-Jul-30 09:21N 43°01' E 003°03'0 0.0
2014-Jul-30 05:19N 43°01' E 003°03'0 0.0
2014-Jul-30 04:18N 43°01' E 003°03'0 0.0
2014-Jul-30 03:13N 43°01' E 003°03'0 0.0
2014-Jul-30 02:22N 43°01' E 003°03'0 0.0
2014-Jul-30 01:25N 43°01' E 003°03'0 0.0
2014-Jul-30 00:30N 43°01' E 003°03'0 0.0
2014-Jul-29 23:31N 43°01' E 003°03'0 0.0
2014-Jul-29 22:29N 43°01' E 003°03'0 0.0
2014-Jul-29 21:29N 43°01' E 003°03'0 0.0
2014-Jul-29 20:22N 43°01' E 003°03'0 0.0
2014-Jul-29 19:28N 43°01' E 003°03'0 0.0
2014-Jul-29 18:31N 43°01' E 003°03'0 0.0
2014-Jul-29 17:31N 43°01' E 003°03'0 0.0
2014-Jul-29 16:31N 43°01' E 003°03'0 0.0
2014-Jul-29 15:32N 43°01' E 003°03'0 0.0
2014-Jul-29 14:32N 43°01' E 003°03'0 0.0
2014-Jul-29 13:31N 43°01' E 003°03'0 0.0
2014-Jul-29 11:21N 43°01' E 003°03'0 0.0
2014-Jul-29 10:33N 43°01' E 003°03'0 0.0
2014-Jul-29 09:15N 43°01' E 003°03'0 0.0
2014-Jul-29 08:25N 43°01' E 003°03'0 0.0
2014-Jul-29 05:27N 43°01' E 003°03'0 0.0
2014-Jul-29 04:33N 43°01' E 003°03'0 0.0
2014-Jul-29 03:03N 43°01' E 003°03'0 0.0
2014-Jul-29 02:27N 43°01' E 003°03'0 0.0
2014-Jul-29 01:16N 43°01' E 003°03'0 0.0
2014-Jul-29 00:20N 43°01' E 003°03'0 0.0
2014-Jul-28 23:32N 43°01' E 003°03'0 0.0
2014-Jul-28 22:32N 43°01' E 003°03'0 0.0
2014-Jul-28 14:20N 43°01' E 003°03'0 0.0
2014-Jul-28 10:33N 43°01' E 003°03'0 0.1
2014-Jul-28 09:31N 43°01' E 003°03'2 1.9
2014-Jul-28 08:11N 42°59' E 003°06'0 0.0
2014-Jul-27 18:07N 42°59' E 003°06'23 2.5
2014-Jul-27 09:13N 42°40' E 003°21'810.1
2014-Jul-27 08:25N 42°32' E 003°23'9 9.9
2014-Jul-27 07:33N 42°23' E 003°26'48 9.6
2014-Jul-27 02:33N 41°36' E 003°13'1510.0
2014-Jul-27 01:04N 41°24' E 003°01'25 9.8
2014-Jul-26 22:33N 41°04' E 002°43'10 9.6
2014-Jul-26 21:33N 40°57' E 002°35'10 9.8
2014-Jul-26 20:33N 40°49' E 002°27'10 9.8
2014-Jul-26 19:33N 40°41' E 002°19'11 9.7
2014-Jul-26 18:27N 40°32' E 002°11'9 9.6
2014-Jul-26 17:33N 40°25' E 002°04'12 9.7
2014-Jul-26 16:22N 40°16' E 001°55'8 9.7
2014-Jul-26 15:33N 40°10' E 001°49'10 9.8
2014-Jul-26 14:33N 40°02' E 001°42'10 9.9
2014-Jul-26 13:33N 39°54' E 001°34'403 8.9
2014-Jul-24 16:05N 35°56' W 005°18'2 3.5
2014-Jul-24 15:31N 35°54' W 005°18'0 0.0
2014-Jul-24 14:31N 35°54' W 005°18'0 0.1
2014-Jul-24 12:34N 35°54' W 005°19'  
Track history (hours):
 
Tides and Currents Weather Stations Pressure Air Temp Water Temp Dewpoint Dewpoint Depression Visibility Wind Speed Wind Dir Waves Ship Positions

Nakhchivan

Last reported at 2014-Aug-02 01:05 UTC. Time now 2014-Aug-02 02:50 UTC.
Position N 43°30' E 010°17'.

Length 139 m; draft 4.6 m.

Type: Cargo ship. MMSI: 215983000.

Date/timePositionNaut miles runAvg speedWind from/ knotsBaromVisibWave heightAir tempDewpointWater temp
2014-Aug-02 01:05N 43°30' E 010°17'0 0.0
2014-Aug-02 00:30N 43°30' E 010°17'0 0.0
2014-Aug-01 22:28N 43°30' E 010°17'0 0.0
2014-Aug-01 21:31N 43°30' E 010°17'0 0.0
2014-Aug-01 20:31N 43°30' E 010°17'0 0.0
2014-Aug-01 19:31N 43°30' E 010°17'0 0.0
2014-Aug-01 18:31N 43°30' E 010°17'0 0.0
2014-Aug-01 17:21N 43°30' E 010°17'3 4.0
2014-Aug-01 16:33N 43°29' E 010°13'10 9.7
2014-Aug-01 15:33N 43°22' E 010°03'148 9.5
2014-Aug-01 00:04N 42°50' E 006°46'24 8.6
2014-Jul-31 21:20N 42°47' E 006°14'7 8.7
2014-Jul-31 20:31N 42°48' E 006°04'10 9.5
2014-Jul-31 19:30N 42°48' E 005°51'9 9.4
2014-Jul-31 18:33N 42°49' E 005°39'20 9.4
2014-Jul-31 16:22N 42°49' E 005°11'7 8.7
2014-Jul-31 15:32N 42°49' E 005°01'10 9.4
2014-Jul-31 14:32N 42°50' E 004°48'10 9.7
2014-Jul-31 13:29N 42°51' E 004°34'9 9.5
2014-Jul-31 12:32N 42°51' E 004°22'10 9.9
2014-Jul-31 11:32N 42°51' E 004°08'9 9.1
2014-Jul-31 10:33N 42°52' E 003°56'10 9.9
2014-Jul-31 09:30N 42°52' E 003°42'2010.0
2014-Jul-31 07:32N 42°57' E 003°16'9 9.3
2014-Jul-31 06:32N 43°01' E 003°04'1 0.1
2014-Jul-31 00:28N 43°01' E 003°03'0 0.0
2014-Jul-30 23:20N 43°01' E 003°03'0 0.0
2014-Jul-30 15:24N 43°01' E 003°03'0 0.0
2014-Jul-30 13:18N 43°01' E 003°03'0 0.0
2014-Jul-30 11:14N 43°01' E 003°03'0 0.0
2014-Jul-30 10:24N 43°01' E 003°03'0 0.0
2014-Jul-30 09:21N 43°01' E 003°03'0 0.0
2014-Jul-30 05:19N 43°01' E 003°03'0 0.0
2014-Jul-30 04:18N 43°01' E 003°03'0 0.0
2014-Jul-30 03:13N 43°01' E 003°03'0 0.0
2014-Jul-30 02:22N 43°01' E 003°03'0 0.0
2014-Jul-30 01:25N 43°01' E 003°03'0 0.0
2014-Jul-30 00:30N 43°01' E 003°03'0 0.0
2014-Jul-29 23:31N 43°01' E 003°03'0 0.0
2014-Jul-29 22:29N 43°01' E 003°03'0 0.0
2014-Jul-29 21:29N 43°01' E 003°03'0 0.0
2014-Jul-29 20:22N 43°01' E 003°03'0 0.0
2014-Jul-29 19:28N 43°01' E 003°03'0 0.0
2014-Jul-29 18:31N 43°01' E 003°03'0 0.0
2014-Jul-29 17:31N 43°01' E 003°03'0 0.0
2014-Jul-29 16:31N 43°01' E 003°03'0 0.0
2014-Jul-29 15:32N 43°01' E 003°03'0 0.0
2014-Jul-29 14:32N 43°01' E 003°03'0 0.0
2014-Jul-29 13:31N 43°01' E 003°03'0 0.0
2014-Jul-29 11:21N 43°01' E 003°03'0 0.0
2014-Jul-29 10:33N 43°01' E 003°03'0 0.0
2014-Jul-29 09:15N 43°01' E 003°03'0 0.0
2014-Jul-29 08:25N 43°01' E 003°03'0 0.0
2014-Jul-29 05:27N 43°01' E 003°03'0 0.0
2014-Jul-29 04:33N 43°01' E 003°03'0 0.0
2014-Jul-29 03:03N 43°01' E 003°03'0 0.0
2014-Jul-29 02:27N 43°01' E 003°03'0 0.0
2014-Jul-29 01:16N 43°01' E 003°03'0 0.0
2014-Jul-29 00:20N 43°01' E 003°03'0 0.0
2014-Jul-28 23:32N 43°01' E 003°03'0 0.0
2014-Jul-28 22:32N 43°01' E 003°03'0 0.0
2014-Jul-28 14:20N 43°01' E 003°03'0 0.0
2014-Jul-28 10:33N 43°01' E 003°03'0 0.1
2014-Jul-28 09:31N 43°01' E 003°03'2 1.9
2014-Jul-28 08:11N 42°59' E 003°06'0 0.0
2014-Jul-27 18:07N 42°59' E 003°06'23 2.5
2014-Jul-27 09:13N 42°40' E 003°21'810.1
2014-Jul-27 08:25N 42°32' E 003°23'9 9.9
2014-Jul-27 07:33N 42°23' E 003°26'48 9.6
2014-Jul-27 02:33N 41°36' E 003°13'1510.0
2014-Jul-27 01:04N 41°24' E 003°01'25 9.8
2014-Jul-26 22:33N 41°04' E 002°43'10 9.6
2014-Jul-26 21:33N 40°57' E 002°35'10 9.8
2014-Jul-26 20:33N 40°49' E 002°27'10 9.8
2014-Jul-26 19:33N 40°41' E 002°19'11 9.7
2014-Jul-26 18:27N 40°32' E 002°11'9 9.6
2014-Jul-26 17:33N 40°25' E 002°04'12 9.7
2014-Jul-26 16:22N 40°16' E 001°55'8 9.7
2014-Jul-26 15:33N 40°10' E 001°49'10 9.8
2014-Jul-26 14:33N 40°02' E 001°42'10 9.9
2014-Jul-26 13:33N 39°54' E 001°34'403 8.9
2014-Jul-24 16:05N 35°56' W 005°18'2 3.5
2014-Jul-24 15:31N 35°54' W 005°18'0 0.0
2014-Jul-24 14:31N 35°54' W 005°18'0 0.1
2014-Jul-24 12:34N 35°54' W 005°19'  

Dump ship's entire track history